Sarcobatus Flat, Nevada Weather observations

Data are for observation ending at time listed.
 Day   Time    Ave.   Ave.  Ave.  Vector   Max.   Stn.    Total    Solar   Ave.  
  of    of     Air    Rel.  Wind   Wind    Wind   Baro.  Precip.   Rad.    Soil  
Year   Day     Temp.  Hum.  Speed  Dir.    Gust   Pres.                    Temp. 
2017   (PST)    F      %     mph   deg.    mph     mb.     in.     W/m2     F   
------------------------------------------------------------------------------
  19    0:00   38.9    80   12.7   148     18.3   873.5    0.00       0    999.0
  19    0:10   38.8    77   15.5   151     19.5   873.1    0.00       0    999.0
  19    0:20   38.6    77   14.0   156     17.8   873.2    0.00       0    999.0
  19    0:30   38.6    78   12.9   158     17.2   873.1    0.00       0    999.0
  19    0:40   38.4    79   12.9   153     16.7   872.9    0.00       0    999.0
  19    0:50   38.3    79   12.8   146     15.6   872.6    0.00       0    999.0
  19    1:00   38.4    80   12.3   151     16.6   872.8    0.00       0    999.0
  19    1:10   38.4    81   12.9   150     17.9   872.9    0.00       0    999.0
  19    1:20   38.2    83   15.4   154     19.7   872.7    0.00       0    999.0
  19    1:30   38.0    85   15.6   150     20.8   872.7    0.00       0    999.0
  19    1:40   37.9    87   14.9   159     20.8   872.9    0.00       0    999.0
  19    1:50   37.9    86   11.3   163     15.2   873.0    0.00       0    999.0
  19    2:00   37.9    86   10.9   163     14.8   872.9    0.00       0    999.0
  19    2:10   37.8    87   12.9   161     17.3   872.9    0.00       0    999.0
  19    2:20   37.8    90   10.9   167     14.9   872.9    0.00       0    999.0
  19    2:30   37.6    91   10.1   170     14.7   872.9    0.00       0    999.0
  19    2:40   37.6    91    8.7   165     11.8   872.8    0.00       0    999.0
  19    2:50   37.7    91    9.3   166     13.2   872.7    0.00       0    999.0
  19    3:00   37.7    90    9.1   167     12.1   872.7    0.00       0    999.0
  19    3:10   37.7    90    7.0   171      9.8   872.6    0.00       0    999.0
  19    3:20   37.7    90    7.5   171     10.5   872.6    0.00       0    999.0
  19    3:30   37.6    92    7.2   165     11.4   872.5    0.00       0    999.0
  19    3:40   37.5    92    7.1   169      9.9   872.6    0.00       0    999.0
  19    3:50   37.4    93    6.2   162      8.3   872.4    0.00       0    999.0
  19    4:00   37.4    94    5.6   170      8.3   872.4    0.00       0    999.0
  19    4:10   37.3    94    4.9   172      6.9   872.4    0.00       0    999.0
  19    4:20   37.3    95    5.2   171      6.8   872.2    0.00       0    999.0
  19    4:30   37.2    95    5.4   176      7.9   872.2    0.00       0    999.0
  19    4:40   37.2    95    5.9   186      8.3   872.2    0.00       0    999.0
  19    4:50   37.2    96    5.1   177      6.3   872.1    0.00       0    999.0
  19    5:00   37.1    96    5.1   174      6.6   871.9    0.00       0    999.0
  19    5:10   37.2    96    4.9   176      6.9   871.7    0.00       0    999.0
  19    5:20   37.2    96    4.5   177      6.6   871.7    0.00       0    999.0
  19    5:30   37.3    96    4.6   173      6.4   871.7    0.00       0    999.0
  19    5:40   37.3    96    5.3   166      6.8   871.5    0.00       0    999.0
  19    5:50   37.5    97    4.9   156      7.5   871.4    0.00       0    999.0
  19    6:00   37.7    97    6.4   152      8.5   871.3    0.00       0    999.0
  19    6:10   37.8    97    7.1   148      9.9   871.2    0.00       0    999.0
  19    6:20   37.9    96    6.9   164      9.3   871.5    0.00       0    999.0
  19    6:30   38.0    96    5.6   168      8.2   871.7    0.00       0    999.0
  19    6:40   38.0    96    5.8   172     10.1   871.8    0.00       0    999.0
  19    6:50   38.1    96    6.4   176      9.1   871.8    0.00       0    999.0
  19    7:00   38.2    95    5.8   173      8.8   871.9    0.00       0    999.0
  19    7:10   38.2    95    5.6   183      9.6   872.0    0.00       0    999.0
  19    7:20   38.2    95    4.2   187      7.1   872.0    0.00       1    999.0
  19    7:30   38.3    94    3.5   161      6.3   871.9    0.00       2    999.0
  19    7:40   38.4    94    3.9   171      8.6   872.0    0.00       3    999.0
  19    7:50   38.5    94    4.3   170      6.1   872.1    0.00       6    999.0
  19    8:00   38.5    93    4.1   151      5.6   872.0    0.00       8    999.0
  19    8:10   38.6    94    4.2   151      5.4   872.2    0.00      10    999.0
  19    8:20   38.7    94    4.8   142      6.2   872.2    0.00      16    999.0
  19    8:30   38.7    94    4.8   154      6.7   872.3    0.00      33    999.0
  19    8:40   38.8    94    6.4   156      9.5   872.2    0.00      60    999.0
  19    8:50   39.0    94    7.1   150      8.8   872.1    0.00      66    999.0
  19    9:00   39.0    95    7.8   146     10.6   872.1    0.00      68    999.0
  19    9:10   39.0    95    6.1   156      8.0   872.2    0.00      69    999.0
  19    9:20   39.1    94    6.3   162      8.2   872.3    0.00      66    999.0
  19    9:30   39.2    94    6.1   162      8.0   872.3    0.00      58    999.0
  19    9:40   39.5    94    5.0   176      7.6   872.3    0.00     107    999.0
  19    9:50   39.7    93    4.8   170      6.8   872.2    0.00      91    999.0
  19   10:00   40.1    92    3.7   180      5.3   872.2    0.00     146    999.0
  19   10:10   40.6    91    3.4   172      5.8   872.2    0.00     195    999.0
  19   10:20   40.8    88    3.3   154      4.7   872.2    0.00     221    999.0
  19   10:30   41.4    86    2.9   176      5.1   872.1    0.00     203    999.0
  19   10:40   42.2    83    1.7   203      4.6   872.0    0.00     228    999.0
  19   10:50   42.4    81    2.4   147      4.5   871.8    0.00     332    999.0
  19   11:00   43.9    79    1.8   108      4.2   871.7    0.00     464    999.0
  19   11:10   44.7    77    4.2   112      7.7   871.5    0.00     692    999.0
  19   11:20   43.7    77    4.6   129      7.9   871.4    0.00     235    999.0
  19   11:30   43.6    76    3.6   147      7.9   871.3    0.00     212    999.0
  19   11:40   43.8    75    4.6   178      7.8   871.2    0.00     158    999.0
  19   11:50   43.8    74    5.0   129      9.3   871.0    0.00     186    999.0
  19   12:00   44.3    72    3.9   163      8.3   870.9    0.00     185    999.0
  19   12:10   44.5    71    3.9   135      7.4   870.7    0.00     195    999.0
  19   12:20   44.6    69    4.7   139      8.6   870.6    0.00     217    999.0
  19   12:30   44.9    68    3.9   120      7.2   870.4    0.00     225    999.0
  19   12:40   45.9    65    2.5   103      5.0   870.3    0.00     351    999.0
  19   12:50   46.7    62    6.1   153      9.6   870.2    0.00     437    999.0
  19   13:00   46.3    63    3.5   135      7.4   870.1    0.00     173    999.0
  19   13:10   46.0    64    5.8   147      8.6   869.9    0.00     151    999.0
  19   13:20   45.7    64    7.3   108     11.2   869.9    0.00     157    999.0
  19   13:30   46.0    65    6.4   109     10.9   869.8    0.00     216    999.0
  19   13:40   46.1    66    6.7   119     12.2   869.7    0.00     237    999.0
  19   13:50   46.1    64    7.7   120     11.2   869.6    0.00     216    999.0
  19   14:00   46.1    64    7.4   112     11.7   869.6    0.00     153    999.0
  19   14:10   46.5    64    6.9   123     11.2   869.5    0.00     202    999.0
  19   14:20   46.6    63    7.8   127     11.7   869.5    0.00     154    999.0
  19   14:30   46.8    64    9.7   113     15.9   869.4    0.00     133    999.0
  19   14:40   46.6    65   11.5   109     15.6   869.3    0.00     157    999.0
  19   14:50   47.2    63   11.7   111     16.5   869.2    0.00     267    999.0
  19   15:00   48.6    59    9.3   118     13.2   869.1    0.00     483    999.0
  19   15:10   48.8    57    9.3   136     18.6   869.0    0.00     250    999.0
  19   15:20   47.9    55    6.8   167     12.3   869.0    0.00      89    999.0
  19   15:30   47.9    54    6.2   168     10.7   869.1    0.00     156    999.0
  19   15:40   47.8    54    6.5   162     10.6   869.0    0.00     104    999.0
  19   15:50   48.4    52    6.6   182      9.0   869.0    0.00     256    999.0
  19   16:00   49.1    50    5.6   177      9.0   869.1    0.00     277    999.0
  19   16:10   48.9    51    9.8   165     15.0   869.1    0.00     209    999.0
  19   16:20   48.2    54   11.8   152     16.4   869.1    0.00     175    999.0
  19   16:30   47.6    58   13.7   136     18.6   869.0    0.00     143    999.0
  19   16:40   47.2    59   13.0   134     17.0   869.0    0.00     115    999.0
  19   16:50   46.5    62   13.7   126     17.4   869.1    0.00      75    999.0
  19   17:00   45.7    64   10.4   142     14.8   869.3    0.00      17    999.0
  19   17:10   45.5    64    7.8   165     13.4   869.4    0.00       2    999.0
  19   17:20   45.0    66    7.3   172     13.8   869.5    0.00       1    999.0
  19   17:30   44.3    68    7.7   176     14.2   869.5    0.00       0    999.0
  19   17:40   44.5    66    5.9   202     11.5   869.6    0.00       0    999.0
  19   17:50   44.2    68    8.2   206     15.6   869.7    0.00       0    999.0
  19   18:00   43.9    70    6.7   219     10.0   869.8    0.00       0    999.0
  19   18:10   43.8    70    6.1   230     12.0   869.9    0.00       0    999.0
  19   18:20   43.6    70    4.7   247     11.7   870.0    0.00       0    999.0
  19   18:30   43.5    71    4.4   156     10.1   870.0    0.00       0    999.0
  19   18:40   43.2    72    4.2   168      7.9   870.0    0.00       0    999.0
  19   18:50   42.4    76   10.4   144     14.2   869.9    0.00       0    999.0
  19   19:00   42.1    77    9.5   148     13.2   870.0    0.00       0    999.0
  19   19:10   41.9    78    8.2   163     12.3   870.0    0.00       0    999.0
  19   19:20   41.8    78    4.9   164      8.3   870.0    0.00       0    999.0
  19   19:30   41.2    79    3.6   176      6.6   870.1    0.00       0    999.0
  19   19:40   40.8    81    4.7   132      9.1   870.1    0.00       0    999.0
  19   19:50   41.0    82    8.4   130     11.3   870.2    0.00       0    999.0
  19   20:00   41.2    82   10.4   124     13.8   870.1    0.00       0    999.0
  19   20:10   41.2    82   10.3   117     14.2   870.0    0.00       0    999.0
  19   20:20   40.8    77    8.9   106     11.8   870.0    0.00       0    999.0
  19   20:30   40.4    76    8.7   109     11.4   870.0    0.00       0    999.0
  19   20:40   40.5    75    8.4   114     12.0   870.0    0.00       0    999.0
  19   20:50   39.9    76    9.3   116     12.0   869.8    0.00       0    999.0
  19   21:00   39.7    77    8.7   115     11.0   869.8    0.00       0    999.0
  19   21:10   39.5    76    7.6    99     12.1   869.7    0.00       0    999.0
  19   21:20   39.5    78    9.5   104     12.9   869.7    0.00       0    999.0
  19   21:30   39.7    78    6.5   123      9.0   869.7    0.00       0    999.0
  19   21:40   39.8    78    6.5   125      8.4   869.5    0.00       0    999.0
  19   21:50   39.9    78    5.1   140      7.9   869.4    0.00       0    999.0
  19   22:00   39.8    77    3.7   142      4.8   869.4    0.00       0    999.0
  19   22:10   40.1    77    5.8   157      8.3   869.4    0.00       0    999.0
  19   22:20   40.4    75    5.7   167      8.0   869.3    0.00       0    999.0
  19   22:30   39.9    76    7.2   192     10.2   869.3    0.00       0    999.0
  19   22:40   39.3    77    7.6   185      9.9   869.3    0.00       0    999.0
  19   22:50   39.1    78    6.9   181      8.7   869.1    0.00       0    999.0
  19   23:00   39.1    80    6.7   182      9.1   869.0    0.00       0    999.0
  19   23:10   39.0    79    6.2   184      8.5   869.0    0.00       0    999.0
  19   23:20   38.6    78    5.4   172      7.1   868.7    0.00       0    999.0
  19   23:30   38.4    78    5.6   164      8.0   868.6    0.00       0    999.0
  19   23:40   38.1    79    4.3   174      6.0   868.5    0.00       0    999.0
  19   23:50   37.9    78    5.7   184      8.1   868.4    0.00       0    999.0

Return to Sarcobatus Flat, Nevada graphs page.


Western Regional Climate Center,wrcc@dri.edu